sensor_id;sensor_type;location;lat;lon;timestamp;pressure;altitude;pressure_sealevel;temperature;humidity
69593;BME280;56796;50.122;14.468;2022-12-18T00:03:27;994.22;;;-6.01;100
69593;BME280;56796;50.122;14.468;2022-12-18T00:22:52;994.24;;;-5.97;100
69593;BME280;56796;50.122;14.468;2022-12-18T00:42:17;994.62;;;-6.53;100
69593;BME280;56796;50.122;14.468;2022-12-18T01:01:41;994.76;;;-6.97;100
69593;BME280;56796;50.122;14.468;2022-12-18T01:21:08;994.9;;;-6.98;100
69593;BME280;56796;50.122;14.468;2022-12-18T01:40:32;995.05;;;-7.32;100
69593;BME280;56796;50.122;14.468;2022-12-18T01:59:55;995.08;;;-7.29;100
69593;BME280;56796;50.122;14.468;2022-12-18T02:19:27;995.33;;;-7.53;100
69593;BME280;56796;50.122;14.468;2022-12-18T02:38:45;995.49;;;-7.27;100
69593;BME280;56796;50.122;14.468;2022-12-18T02:58:14;995.46;;;-7.13;100
69593;BME280;56796;50.122;14.468;2022-12-18T03:17:37;995.61;;;-6.65;100
69593;BME280;56796;50.122;14.468;2022-12-18T03:37:04;995.66;;;-6.66;100
69593;BME280;56796;50.122;14.468;2022-12-18T03:56:28;995.78;;;-6.38;100
69593;BME280;56796;50.122;14.468;2022-12-18T04:15:53;995.96;;;-6.94;100
69593;BME280;56796;50.122;14.468;2022-12-18T04:35:17;996.26;;;-6.99;100
69593;BME280;56796;50.122;14.468;2022-12-18T04:54:45;996.14;;;-6.85;100
69593;BME280;56796;50.122;14.468;2022-12-18T05:14:11;996.2;;;-6.69;100
69593;BME280;56796;50.122;14.468;2022-12-18T05:33:35;996.47;;;-6.66;100
69593;BME280;56796;50.122;14.468;2022-12-18T05:53:00;996.64;;;-6.61;100
69593;BME280;56796;50.122;14.468;2022-12-18T06:12:26;996.86;;;-6.51;100
69593;BME280;56796;50.122;14.468;2022-12-18T06:31:51;996.97;;;-6.65;100
69593;BME280;56796;50.122;14.468;2022-12-18T06:51:18;997.34;;;-6.54;100
69593;BME280;56796;50.122;14.468;2022-12-18T07:10:41;997.65;;;-6.55;100
69593;BME280;56796;50.122;14.468;2022-12-18T07:30:11;997.78;;;-6.59;100
69593;BME280;56796;50.122;14.468;2022-12-18T07:49:27;998.07;;;-6.63;100
69593;BME280;56796;50.122;14.468;2022-12-18T08:08:54;998.15;;;-6.99;100
69593;BME280;56796;50.122;14.468;2022-12-18T08:28:15;998.12;;;-7.05;100
69593;BME280;56796;50.122;14.468;2022-12-18T08:47:41;998.23;;;-6.95;100
69593;BME280;56796;50.122;14.468;2022-12-18T09:07:05;998.29;;;-6.87;100
69593;BME280;56796;50.122;14.468;2022-12-18T09:26:31;998.26;;;-6.64;100
69593;BME280;56796;50.122;14.468;2022-12-18T09:45:58;998.4;;;-6.91;100
69593;BME280;56796;50.122;14.468;2022-12-18T10:05:24;998.76;;;-6.5;100
69593;BME280;56796;50.122;14.468;2022-12-18T10:24:51;998.55;;;-6.28;100
69593;BME280;56796;50.122;14.468;2022-12-18T10:44:18;998.12;;;-6.35;100
69593;BME280;56796;50.122;14.468;2022-12-18T11:03:40;997.82;;;-6.24;100
69593;BME280;56796;50.122;14.468;2022-12-18T11:23:10;997.77;;;-5.9;100
69593;BME280;56796;50.122;14.468;2022-12-18T11:42:34;997.76;;;-6.05;100
69593;BME280;56796;50.122;14.468;2022-12-18T12:01:56;997.8;;;-5.97;100
69593;BME280;56796;50.122;14.468;2022-12-18T12:21:22;997.85;;;-6.02;100
69593;BME280;56796;50.122;14.468;2022-12-18T12:40:41;997.89;;;-5.94;100
69593;BME280;56796;50.122;14.468;2022-12-18T12:59:57;998.16;;;-6.03;100
69593;BME280;56796;50.122;14.468;2022-12-18T13:19:21;998.15;;;-6.31;100
69593;BME280;56796;50.122;14.468;2022-12-18T13:38:45;998.01;;;-6.49;100
69593;BME280;56796;50.122;14.468;2022-12-18T13:58:11;998.03;;;-6.44;100
69593;BME280;56796;50.122;14.468;2022-12-18T14:17:35;998.19;;;-6.82;100
69593;BME280;56796;50.122;14.468;2022-12-18T15:54:20;998.18;;;-7.46;100
69593;BME280;56796;50.122;14.468;2022-12-18T16:13:44;997.94;;;-7.4;100
69593;BME280;56796;50.122;14.468;2022-12-18T16:33:12;997.95;;;-7.3;100
69593;BME280;56796;50.122;14.468;2022-12-18T16:52:34;998.01;;;-7.09;100
69593;BME280;56796;50.122;14.468;2022-12-18T17:12:03;997.84;;;-7.03;100
69593;BME280;56796;50.122;14.468;2022-12-18T17:31:25;997.97;;;-6.98;100
69593;BME280;56796;50.122;14.468;2022-12-18T17:50:49;997.93;;;-6.96;100
69593;BME280;56796;50.122;14.468;2022-12-18T18:10:12;997.89;;;-7.08;100
69593;BME280;56796;50.122;14.468;2022-12-18T18:29:37;997.62;;;-7.36;100
69593;BME280;56796;50.122;14.468;2022-12-18T18:49:05;997.78;;;-7.48;100
69593;BME280;56796;50.122;14.468;2022-12-18T19:08:27;997.95;;;-7.39;100
69593;BME280;56796;50.122;14.468;2022-12-18T19:27:51;997.84;;;-7.75;100
69593;BME280;56796;50.122;14.468;2022-12-18T19:47:18;997.59;;;-7.89;100
69593;BME280;56796;50.122;14.468;2022-12-18T20:26:06;997.45;;;-8.28;100
69593;BME280;56796;50.122;14.468;2022-12-18T20:45:23;997.42;;;-8.47;100
69593;BME280;56796;50.122;14.468;2022-12-18T21:04:47;997.41;;;-8.57;100
69593;BME280;56796;50.122;14.468;2022-12-18T21:24:12;997.23;;;-8.57;100
69593;BME280;56796;50.122;14.468;2022-12-18T21:43:37;997.14;;;-8.84;99.85
69593;BME280;56796;50.122;14.468;2022-12-18T22:03:01;997.35;;;-8.89;99.11
69593;BME280;56796;50.122;14.468;2022-12-18T22:22:29;997.06;;;-8.85;98.61
69593;BME280;56796;50.122;14.468;2022-12-18T22:41:56;996.83;;;-8.51;98.08
69593;BME280;56796;50.122;14.468;2022-12-18T23:01:16;996.77;;;-8.17;97.76
69593;BME280;56796;50.122;14.468;2022-12-18T23:20:40;996.49;;;-7.9;97.87
69593;BME280;56796;50.122;14.468;2022-12-18T23:40:06;996.35;;;-7.65;98.26
69593;BME280;56796;50.122;14.468;2022-12-18T23:59:32;995.99;;;-7.52;98.24
